sensor_id;sensor_type;location;lat;lon;timestamp;temperature;humidity
75049;DHT22;63803;53.120;8.764;2022-10-16T00:01:25;22.40;63.10
75049;DHT22;63803;53.120;8.764;2022-10-16T00:03:52;22.30;63.60
75049;DHT22;63803;53.120;8.764;2022-10-16T00:06:20;22.20;62.90
75049;DHT22;63803;53.120;8.764;2022-10-16T00:08:46;22.20;63.00
75049;DHT22;63803;53.120;8.764;2022-10-16T00:11:21;22.20;62.80
75049;DHT22;63803;53.120;8.764;2022-10-16T00:13:49;22.20;62.70
75049;DHT22;63803;53.120;8.764;2022-10-16T00:16:17;22.20;62.90
75049;DHT22;63803;53.120;8.764;2022-10-16T00:18:43;22.20;62.70
75049;DHT22;63803;53.120;8.764;2022-10-16T00:21:15;22.20;62.70
75049;DHT22;63803;53.120;8.764;2022-10-16T00:23:41;22.20;62.60
75049;DHT22;63803;53.120;8.764;2022-10-16T00:26:10;22.20;62.60
75049;DHT22;63803;53.120;8.764;2022-10-16T00:28:36;22.20;62.60
75049;DHT22;63803;53.120;8.764;2022-10-16T00:31:07;22.20;62.80
75049;DHT22;63803;53.120;8.764;2022-10-16T00:33:34;22.20;62.60
75049;DHT22;63803;53.120;8.764;2022-10-16T00:36:01;22.20;62.40
75049;DHT22;63803;53.120;8.764;2022-10-16T00:38:27;22.20;62.60
75049;DHT22;63803;53.120;8.764;2022-10-16T00:40:53;22.20;62.70
75049;DHT22;63803;53.120;8.764;2022-10-16T00:43:39;22.10;62.60
75049;DHT22;63803;53.120;8.764;2022-10-16T00:46:20;22.20;62.60
75049;DHT22;63803;53.120;8.764;2022-10-16T00:48:53;20.50;61.50
75049;DHT22;63803;53.120;8.764;2022-10-16T00:51:25;22.10;62.50
75049;DHT22;63803;53.120;8.764;2022-10-16T00:53:54;22.10;62.50
75049;DHT22;63803;53.120;8.764;2022-10-16T00:56:20;22.20;62.50
75049;DHT22;63803;53.120;8.764;2022-10-16T00:58:46;22.20;62.20
75049;DHT22;63803;53.120;8.764;2022-10-16T01:01:12;22.20;62.40
75049;DHT22;63803;53.120;8.764;2022-10-16T01:03:38;22.10;62.30
75049;DHT22;63803;53.120;8.764;2022-10-16T01:12:26;21.40;62.30
75049;DHT22;63803;53.120;8.764;2022-10-16T01:15:17;22.10;62.20
75049;DHT22;63803;53.120;8.764;2022-10-16T01:18:08;22.10;62.20
75049;DHT22;63803;53.120;8.764;2022-10-16T01:20:42;21.50;62.60
75049;DHT22;63803;53.120;8.764;2022-10-16T01:23:27;24.00;64.10
75049;DHT22;63803;53.120;8.764;2022-10-16T01:28:30;22.20;62.20
75049;DHT22;63803;53.120;8.764;2022-10-16T01:30:58;22.10;62.20
75049;DHT22;63803;53.120;8.764;2022-10-16T01:33:30;22.10;62.00
75049;DHT22;63803;53.120;8.764;2022-10-16T01:36:18;22.00;62.10
75049;DHT22;63803;53.120;8.764;2022-10-16T01:38:50;22.10;62.00
75049;DHT22;63803;53.120;8.764;2022-10-16T01:41:22;22.10;62.10
75049;DHT22;63803;53.120;8.764;2022-10-16T01:46:23;21.60;62.40
75049;DHT22;63803;53.120;8.764;2022-10-16T01:48:51;22.20;62.60
75049;DHT22;63803;53.120;8.764;2022-10-16T01:51:19;22.00;62.60
75049;DHT22;63803;53.120;8.764;2022-10-16T01:53:51;22.10;61.90
75049;DHT22;63803;53.120;8.764;2022-10-16T01:56:18;21.50;62.40
75049;DHT22;63803;53.120;8.764;2022-10-16T01:58:54;22.10;62.10
75049;DHT22;63803;53.120;8.764;2022-10-16T02:01:23;22.10;62.10
75049;DHT22;63803;53.120;8.764;2022-10-16T02:03:53;22.10;61.90
75049;DHT22;63803;53.120;8.764;2022-10-16T02:06:20;22.10;62.00
75049;DHT22;63803;53.120;8.764;2022-10-16T02:08:46;22.10;61.90
75049;DHT22;63803;53.120;8.764;2022-10-16T02:11:12;22.10;61.90
75049;DHT22;63803;53.120;8.764;2022-10-16T02:13:48;21.20;61.80
75049;DHT22;63803;53.120;8.764;2022-10-16T02:16:16;22.10;61.80
75049;DHT22;63803;53.120;8.764;2022-10-16T02:18:43;22.10;61.90
75049;DHT22;63803;53.120;8.764;2022-10-16T02:21:22;22.10;61.90
75049;DHT22;63803;53.120;8.764;2022-10-16T02:23:59;22.00;61.80
75049;DHT22;63803;53.120;8.764;2022-10-16T02:26:52;21.90;62.10
75049;DHT22;63803;53.120;8.764;2022-10-16T02:29:18;21.90;61.80
75049;DHT22;63803;53.120;8.764;2022-10-16T02:31:48;22.00;61.70
75049;DHT22;63803;53.120;8.764;2022-10-16T02:34:16;22.00;61.90
75049;DHT22;63803;53.120;8.764;2022-10-16T02:36:44;22.00;61.70
75049;DHT22;63803;53.120;8.764;2022-10-16T02:39:12;22.00;62.40
75049;DHT22;63803;53.120;8.764;2022-10-16T02:41:38;22.00;62.20
75049;DHT22;63803;53.120;8.764;2022-10-16T02:44:04;22.00;61.70
75049;DHT22;63803;53.120;8.764;2022-10-16T02:46:30;22.00;61.70
75049;DHT22;63803;53.120;8.764;2022-10-16T02:48:56;21.20;62.00
75049;DHT22;63803;53.120;8.764;2022-10-16T02:51:22;22.80;62.60
75049;DHT22;63803;53.120;8.764;2022-10-16T02:53:47;22.00;61.70
75049;DHT22;63803;53.120;8.764;2022-10-16T02:56:13;23.20;62.90
75049;DHT22;63803;53.120;8.764;2022-10-16T02:58:39;22.00;61.60
75049;DHT22;63803;53.120;8.764;2022-10-16T03:01:05;22.00;61.50
75049;DHT22;63803;53.120;8.764;2022-10-16T03:03:30;22.00;61.60
75049;DHT22;63803;53.120;8.764;2022-10-16T03:05:56;23.10;62.80
75049;DHT22;63803;53.120;8.764;2022-10-16T03:08:22;21.10;62.00
75049;DHT22;63803;53.120;8.764;2022-10-16T03:10:51;22.00;61.70
75049;DHT22;63803;53.120;8.764;2022-10-16T03:13:17;22.00;61.80
75049;DHT22;63803;53.120;8.764;2022-10-16T03:15:43;22.00;62.40
75049;DHT22;63803;53.120;8.764;2022-10-16T03:18:09;22.00;62.30
75049;DHT22;63803;53.120;8.764;2022-10-16T03:20:35;22.00;61.70
75049;DHT22;63803;53.120;8.764;2022-10-16T03:23:01;22.00;61.70
75049;DHT22;63803;53.120;8.764;2022-10-16T03:25:28;22.00;61.70
75049;DHT22;63803;53.120;8.764;2022-10-16T03:27:53;22.00;61.50
75049;DHT22;63803;53.120;8.764;2022-10-16T03:30:19;22.00;61.50
75049;DHT22;63803;53.120;8.764;2022-10-16T03:32:45;22.00;62.10
75049;DHT22;63803;53.120;8.764;2022-10-16T03:35:11;21.80;61.40
75049;DHT22;63803;53.120;8.764;2022-10-16T03:37:36;22.00;61.40
75049;DHT22;63803;53.120;8.764;2022-10-16T03:40:03;22.00;61.50
75049;DHT22;63803;53.120;8.764;2022-10-16T03:42:29;22.00;61.40
75049;DHT22;63803;53.120;8.764;2022-10-16T03:44:55;21.90;61.40
75049;DHT22;63803;53.120;8.764;2022-10-16T03:47:21;22.00;61.50
75049;DHT22;63803;53.120;8.764;2022-10-16T03:49:49;22.10;61.60
75049;DHT22;63803;53.120;8.764;2022-10-16T03:52:15;22.00;61.50
75049;DHT22;63803;53.120;8.764;2022-10-16T03:54:41;22.00;61.60
75049;DHT22;63803;53.120;8.764;2022-10-16T03:57:07;21.90;61.50
75049;DHT22;63803;53.120;8.764;2022-10-16T03:59:33;21.90;61.50
75049;DHT22;63803;53.120;8.764;2022-10-16T04:01:59;21.90;61.40
75049;DHT22;63803;53.120;8.764;2022-10-16T04:04:24;21.90;61.90
75049;DHT22;63803;53.120;8.764;2022-10-16T04:06:50;21.90;61.30
75049;DHT22;63803;53.120;8.764;2022-10-16T04:09:16;22.00;61.30
75049;DHT22;63803;53.120;8.764;2022-10-16T04:11:42;20.70;61.40
75049;DHT22;63803;53.120;8.764;2022-10-16T04:14:08;21.90;61.40
75049;DHT22;63803;53.120;8.764;2022-10-16T04:16:34;21.90;61.40
75049;DHT22;63803;53.120;8.764;2022-10-16T04:19:00;21.90;61.30
75049;DHT22;63803;53.120;8.764;2022-10-16T04:21:26;22.00;61.40
75049;DHT22;63803;53.120;8.764;2022-10-16T04:23:52;21.90;61.40
75049;DHT22;63803;53.120;8.764;2022-10-16T04:26:17;22.30;62.30
75049;DHT22;63803;53.120;8.764;2022-10-16T04:28:43;21.90;61.40
75049;DHT22;63803;53.120;8.764;2022-10-16T04:31:09;21.90;61.40
75049;DHT22;63803;53.120;8.764;2022-10-16T04:33:35;21.90;61.40
75049;DHT22;63803;53.120;8.764;2022-10-16T04:36:01;23.00;62.60
75049;DHT22;63803;53.120;8.764;2022-10-16T04:38:28;23.20;62.70
75049;DHT22;63803;53.120;8.764;2022-10-16T04:40:53;21.90;61.40
75049;DHT22;63803;53.120;8.764;2022-10-16T04:43:19;21.90;61.30
75049;DHT22;63803;53.120;8.764;2022-10-16T04:45:45;21.90;61.30
75049;DHT22;63803;53.120;8.764;2022-10-16T04:48:11;21.90;61.30
75049;DHT22;63803;53.120;8.764;2022-10-16T04:50:37;21.90;61.30
75049;DHT22;63803;53.120;8.764;2022-10-16T04:53:03;21.90;61.40
75049;DHT22;63803;53.120;8.764;2022-10-16T04:55:29;21.90;61.20
75049;DHT22;63803;53.120;8.764;2022-10-16T04:57:55;21.90;61.30
75049;DHT22;63803;53.120;8.764;2022-10-16T05:00:20;22.00;62.00
75049;DHT22;63803;53.120;8.764;2022-10-16T05:02:49;21.90;61.40
75049;DHT22;63803;53.120;8.764;2022-10-16T05:05:15;21.00;61.70
75049;DHT22;63803;53.120;8.764;2022-10-16T05:07:41;21.90;61.50
75049;DHT22;63803;53.120;8.764;2022-10-16T05:10:07;21.90;61.40
75049;DHT22;63803;53.120;8.764;2022-10-16T05:12:33;21.20;61.50
75049;DHT22;63803;53.120;8.764;2022-10-16T05:14:58;21.90;61.40
75049;DHT22;63803;53.120;8.764;2022-10-16T05:17:25;21.90;61.20
75049;DHT22;63803;53.120;8.764;2022-10-16T05:19:51;21.90;61.30
75049;DHT22;63803;53.120;8.764;2022-10-16T05:22:17;21.80;61.20
75049;DHT22;63803;53.120;8.764;2022-10-16T05:24:43;21.90;61.20
75049;DHT22;63803;53.120;8.764;2022-10-16T05:27:09;21.80;61.30
75049;DHT22;63803;53.120;8.764;2022-10-16T05:29:35;21.80;61.20
75049;DHT22;63803;53.120;8.764;2022-10-16T05:32:01;22.10;61.40
75049;DHT22;63803;53.120;8.764;2022-10-16T05:34:27;21.80;61.80
75049;DHT22;63803;53.120;8.764;2022-10-16T05:36:52;22.80;62.40
75049;DHT22;63803;53.120;8.764;2022-10-16T05:39:18;21.80;61.20
75049;DHT22;63803;53.120;8.764;2022-10-16T05:41:44;21.80;61.20
75049;DHT22;63803;53.120;8.764;2022-10-16T05:44:10;21.20;61.60
75049;DHT22;63803;53.120;8.764;2022-10-16T05:46:36;21.80;61.30
75049;DHT22;63803;53.120;8.764;2022-10-16T05:49:03;21.70;61.20
75049;DHT22;63803;53.120;8.764;2022-10-16T05:51:28;21.80;61.30
75049;DHT22;63803;53.120;8.764;2022-10-16T05:53:54;23.30;62.60
75049;DHT22;63803;53.120;8.764;2022-10-16T05:56:20;22.00;62.00
75049;DHT22;63803;53.120;8.764;2022-10-16T05:58:46;21.80;61.20
75049;DHT22;63803;53.120;8.764;2022-10-16T06:01:15;21.80;61.20
75049;DHT22;63803;53.120;8.764;2022-10-16T06:03:41;20.80;61.40
75049;DHT22;63803;53.120;8.764;2022-10-16T06:06:12;21.80;61.20
75049;DHT22;63803;53.120;8.764;2022-10-16T06:08:39;21.80;61.30
75049;DHT22;63803;53.120;8.764;2022-10-16T06:11:10;21.80;61.20
75049;DHT22;63803;53.120;8.764;2022-10-16T06:13:36;21.80;61.30
75049;DHT22;63803;53.120;8.764;2022-10-16T06:16:03;21.80;61.30
75049;DHT22;63803;53.120;8.764;2022-10-16T06:18:30;21.80;61.30
75049;DHT22;63803;53.120;8.764;2022-10-16T06:20:56;21.80;61.30
75049;DHT22;63803;53.120;8.764;2022-10-16T06:23:23;21.80;61.30
75049;DHT22;63803;53.120;8.764;2022-10-16T06:25:48;21.80;61.20
75049;DHT22;63803;53.120;8.764;2022-10-16T06:28:15;21.80;61.20
75049;DHT22;63803;53.120;8.764;2022-10-16T06:30:41;22.00;61.40
75049;DHT22;63803;53.120;8.764;2022-10-16T06:33:10;21.40;61.70
75049;DHT22;63803;53.120;8.764;2022-10-16T06:35:36;21.00;61.50
75049;DHT22;63803;53.120;8.764;2022-10-16T06:38:02;21.80;61.20
75049;DHT22;63803;53.120;8.764;2022-10-16T06:40:27;21.80;61.30
75049;DHT22;63803;53.120;8.764;2022-10-16T06:42:55;21.10;61.60
75049;DHT22;63803;53.120;8.764;2022-10-16T06:45:20;21.70;61.90
75049;DHT22;63803;53.120;8.764;2022-10-16T06:47:46;21.00;61.50
75049;DHT22;63803;53.120;8.764;2022-10-16T06:50:12;21.80;61.20
75049;DHT22;63803;53.120;8.764;2022-10-16T06:52:38;21.80;61.20
75049;DHT22;63803;53.120;8.764;2022-10-16T06:55:04;20.50;61.20
75049;DHT22;63803;53.120;8.764;2022-10-16T06:57:30;21.80;61.20
75049;DHT22;63803;53.120;8.764;2022-10-16T06:59:56;20.70;61.20
75049;DHT22;63803;53.120;8.764;2022-10-16T07:02:21;21.80;61.20
75049;DHT22;63803;53.120;8.764;2022-10-16T07:04:47;21.80;61.20
75049;DHT22;63803;53.120;8.764;2022-10-16T07:07:13;21.80;61.30
75049;DHT22;63803;53.120;8.764;2022-10-16T07:09:40;22.10;62.00
75049;DHT22;63803;53.120;8.764;2022-10-16T07:12:06;21.80;61.30
75049;DHT22;63803;53.120;8.764;2022-10-16T07:14:31;21.80;61.30
75049;DHT22;63803;53.120;8.764;2022-10-16T07:16:57;21.30;61.50
75049;DHT22;63803;53.120;8.764;2022-10-16T07:19:23;21.80;61.20
75049;DHT22;63803;53.120;8.764;2022-10-16T07:21:50;21.70;61.20
75049;DHT22;63803;53.120;8.764;2022-10-16T07:24:16;21.80;61.20
75049;DHT22;63803;53.120;8.764;2022-10-16T07:26:44;21.70;61.20
75049;DHT22;63803;53.120;8.764;2022-10-16T07:29:20;21.30;61.50
75049;DHT22;63803;53.120;8.764;2022-10-16T07:31:47;21.80;61.30
75049;DHT22;63803;53.120;8.764;2022-10-16T07:34:15;21.80;61.20
75049;DHT22;63803;53.120;8.764;2022-10-16T07:36:41;23.50;62.70
75049;DHT22;63803;53.120;8.764;2022-10-16T07:39:07;21.80;61.20
75049;DHT22;63803;53.120;8.764;2022-10-16T07:41:34;21.80;61.20
75049;DHT22;63803;53.120;8.764;2022-10-16T07:44:03;21.00;61.60
75049;DHT22;63803;53.120;8.764;2022-10-16T07:46:29;21.80;61.30
75049;DHT22;63803;53.120;8.764;2022-10-16T07:48:55;21.70;61.20
75049;DHT22;63803;53.120;8.764;2022-10-16T07:51:22;21.70;61.20
75049;DHT22;63803;53.120;8.764;2022-10-16T07:53:49;21.60;61.70
75049;DHT22;63803;53.120;8.764;2022-10-16T07:56:16;21.80;61.20
75049;DHT22;63803;53.120;8.764;2022-10-16T07:58:42;21.70;61.20
75049;DHT22;63803;53.120;8.764;2022-10-16T08:01:10;21.70;61.20
75049;DHT22;63803;53.120;8.764;2022-10-16T08:03:36;21.70;61.20
75049;DHT22;63803;53.120;8.764;2022-10-16T08:06:02;20.90;61.40
75049;DHT22;63803;53.120;8.764;2022-10-16T08:08:29;21.70;61.20
75049;DHT22;63803;53.120;8.764;2022-10-16T08:10:55;21.70;61.20
75049;DHT22;63803;53.120;8.764;2022-10-16T08:13:21;21.40;61.80
75049;DHT22;63803;53.120;8.764;2022-10-16T08:15:47;21.70;61.30
75049;DHT22;63803;53.120;8.764;2022-10-16T08:18:14;23.30;63.30
75049;DHT22;63803;53.120;8.764;2022-10-16T08:20:41;21.80;62.50
75049;DHT22;63803;53.120;8.764;2022-10-16T08:23:10;21.80;62.40
75049;DHT22;63803;53.120;8.764;2022-10-16T08:25:37;21.80;62.80
75049;DHT22;63803;53.120;8.764;2022-10-16T08:28:04;21.80;62.90
75049;DHT22;63803;53.120;8.764;2022-10-16T08:30:31;21.80;63.00
75049;DHT22;63803;53.120;8.764;2022-10-16T08:32:57;21.90;63.30
75049;DHT22;63803;53.120;8.764;2022-10-16T08:35:24;21.80;63.30
75049;DHT22;63803;53.120;8.764;2022-10-16T08:37:49;21.80;63.60
75049;DHT22;63803;53.120;8.764;2022-10-16T08:40:18;21.80;63.50
75049;DHT22;63803;53.120;8.764;2022-10-16T08:45:33;21.90;63.70
75049;DHT22;63803;53.120;8.764;2022-10-16T08:48:22;21.80;64.40
75049;DHT22;63803;53.120;8.764;2022-10-16T08:50:47;21.90;63.60
75049;DHT22;63803;53.120;8.764;2022-10-16T08:53:20;21.80;64.70
75049;DHT22;63803;53.120;8.764;2022-10-16T08:55:53;21.90;64.00
75049;DHT22;63803;53.120;8.764;2022-10-16T08:58:26;21.90;64.10
75049;DHT22;63803;53.120;8.764;2022-10-16T09:00:55;21.90;64.10
75049;DHT22;63803;53.120;8.764;2022-10-16T09:06:45;21.90;64.70
75049;DHT22;63803;53.120;8.764;2022-10-16T09:12:08;22.10;64.90
75049;DHT22;63803;53.120;8.764;2022-10-16T09:20:27;22.00;64.80
75049;DHT22;63803;53.120;8.764;2022-10-16T09:23:45;22.00;64.70
75049;DHT22;63803;53.120;8.764;2022-10-16T09:25:48;22.40;66.00
75049;DHT22;63803;53.120;8.764;2022-10-16T09:28:16;22.00;65.30
75049;DHT22;63803;53.120;8.764;2022-10-16T09:30:43;22.00;65.10
75049;DHT22;63803;53.120;8.764;2022-10-16T09:33:10;22.00;65.00
75049;DHT22;63803;53.120;8.764;2022-10-16T09:35:37;22.00;64.90
75049;DHT22;63803;53.120;8.764;2022-10-16T09:38:04;22.00;65.00
75049;DHT22;63803;53.120;8.764;2022-10-16T09:40:35;22.00;65.30
75049;DHT22;63803;53.120;8.764;2022-10-16T09:43:31;22.00;65.10
75049;DHT22;63803;53.120;8.764;2022-10-16T09:46:05;22.00;65.50
75049;DHT22;63803;53.120;8.764;2022-10-16T09:48:44;22.00;65.30
75049;DHT22;63803;53.120;8.764;2022-10-16T09:53:48;21.90;66.00
75049;DHT22;63803;53.120;8.764;2022-10-16T09:56:43;22.00;65.30
75049;DHT22;63803;53.120;8.764;2022-10-16T09:59:13;22.00;65.30
75049;DHT22;63803;53.120;8.764;2022-10-16T10:01:50;21.60;65.10
75049;DHT22;63803;53.120;8.764;2022-10-16T10:04:18;22.10;65.90
75049;DHT22;63803;53.120;8.764;2022-10-16T10:06:55;22.00;66.10
75049;DHT22;63803;53.120;8.764;2022-10-16T10:09:25;22.10;65.50
75049;DHT22;63803;53.120;8.764;2022-10-16T10:11:59;22.10;65.20
75049;DHT22;63803;53.120;8.764;2022-10-16T10:33:59;22.10;65.40
75049;DHT22;63803;53.120;8.764;2022-10-16T10:36:38;22.20;65.30
75049;DHT22;63803;53.120;8.764;2022-10-16T10:39:12;22.20;65.50
75049;DHT22;63803;53.120;8.764;2022-10-16T10:47:30;22.30;68.50
75049;DHT22;63803;53.120;8.764;2022-10-16T10:50:20;22.30;71.00
75049;DHT22;63803;53.120;8.764;2022-10-16T10:55:57;22.30;70.90
75049;DHT22;63803;53.120;8.764;2022-10-16T11:01:37;22.40;73.20
75049;DHT22;63803;53.120;8.764;2022-10-16T11:06:56;22.30;72.90
75049;DHT22;63803;53.120;8.764;2022-10-16T11:09:27;22.30;72.10
75049;DHT22;63803;53.120;8.764;2022-10-16T11:12:09;22.30;72.30
75049;DHT22;63803;53.120;8.764;2022-10-16T11:17:40;22.30;71.90
75049;DHT22;63803;53.120;8.764;2022-10-16T11:22:47;22.30;71.20
75049;DHT22;63803;53.120;8.764;2022-10-16T11:25:28;22.30;71.20
75049;DHT22;63803;53.120;8.764;2022-10-16T11:28:14;22.30;71.10
75049;DHT22;63803;53.120;8.764;2022-10-16T11:30:53;22.20;70.90
75049;DHT22;63803;53.120;8.764;2022-10-16T11:33:22;22.30;70.80
75049;DHT22;63803;53.120;8.764;2022-10-16T11:38:53;22.30;71.10
75049;DHT22;63803;53.120;8.764;2022-10-16T11:44:35;22.40;69.90
75049;DHT22;63803;53.120;8.764;2022-10-16T11:47:25;23.50;65.50
75049;DHT22;63803;53.120;8.764;2022-10-16T11:52:56;22.80;67.50
75049;DHT22;63803;53.120;8.764;2022-10-16T11:55:43;21.60;68.70
75049;DHT22;63803;53.120;8.764;2022-10-16T12:07:03;22.30;69.10
75049;DHT22;63803;53.120;8.764;2022-10-16T12:09:32;22.30;69.00
75049;DHT22;63803;53.120;8.764;2022-10-16T12:11:58;22.20;69.10
75049;DHT22;63803;53.120;8.764;2022-10-16T12:14:35;22.30;69.20
75049;DHT22;63803;53.120;8.764;2022-10-16T12:19:57;22.20;69.20
75049;DHT22;63803;53.120;8.764;2022-10-16T12:22:23;23.00;70.60
75049;DHT22;63803;53.120;8.764;2022-10-16T12:24:51;22.20;69.60
75049;DHT22;63803;53.120;8.764;2022-10-16T12:27:33;22.30;69.40
75049;DHT22;63803;53.120;8.764;2022-10-16T12:30:04;22.20;69.40
75049;DHT22;63803;53.120;8.764;2022-10-16T12:32:34;21.60;69.40
75049;DHT22;63803;53.120;8.764;2022-10-16T12:35:01;24.30;71.00
75049;DHT22;63803;53.120;8.764;2022-10-16T12:37:33;22.20;69.10
75049;DHT22;63803;53.120;8.764;2022-10-16T12:40:12;22.30;69.00
75049;DHT22;63803;53.120;8.764;2022-10-16T12:42:38;22.20;69.10
75049;DHT22;63803;53.120;8.764;2022-10-16T12:47:51;22.30;69.00
75049;DHT22;63803;53.120;8.764;2022-10-16T12:50:26;22.20;68.90
75049;DHT22;63803;53.120;8.764;2022-10-16T12:52:52;22.20;68.70
75049;DHT22;63803;53.120;8.764;2022-10-16T12:55:21;22.30;68.80
75049;DHT22;63803;53.120;8.764;2022-10-16T12:58:12;22.20;68.70
75049;DHT22;63803;53.120;8.764;2022-10-16T13:00:58;22.30;68.70
75049;DHT22;63803;53.120;8.764;2022-10-16T13:06:19;22.20;68.80
75049;DHT22;63803;53.120;8.764;2022-10-16T13:09:11;22.20;68.60
75049;DHT22;63803;53.120;8.764;2022-10-16T13:14:49;22.30;68.50
75049;DHT22;63803;53.120;8.764;2022-10-16T13:22:53;22.30;68.40
75049;DHT22;63803;53.120;8.764;2022-10-16T13:28:07;22.20;68.40
75049;DHT22;63803;53.120;8.764;2022-10-16T13:30:44;22.20;68.40
75049;DHT22;63803;53.120;8.764;2022-10-16T13:33:21;22.20;68.30
75049;DHT22;63803;53.120;8.764;2022-10-16T13:35:54;21.40;68.50
75049;DHT22;63803;53.120;8.764;2022-10-16T13:38:22;22.20;68.30
75049;DHT22;63803;53.120;8.764;2022-10-16T13:43:22;22.20;68.10
75049;DHT22;63803;53.120;8.764;2022-10-16T13:46:00;21.90;68.30
75049;DHT22;63803;53.120;8.764;2022-10-16T13:48:28;22.20;68.00
75049;DHT22;63803;53.120;8.764;2022-10-16T13:51:02;20.90;67.80
75049;DHT22;63803;53.120;8.764;2022-10-16T13:53:31;22.20;68.10
75049;DHT22;63803;53.120;8.764;2022-10-16T13:55:57;22.40;68.00
75049;DHT22;63803;53.120;8.764;2022-10-16T13:58:23;22.20;67.80
75049;DHT22;63803;53.120;8.764;2022-10-16T14:00:57;22.10;68.00
75049;DHT22;63803;53.120;8.764;2022-10-16T14:03:25;22.20;67.80
75049;DHT22;63803;53.120;8.764;2022-10-16T14:05:53;22.20;67.80
75049;DHT22;63803;53.120;8.764;2022-10-16T14:08:21;23.20;68.90
75049;DHT22;63803;53.120;8.764;2022-10-16T14:10:52;22.50;68.50
75049;DHT22;63803;53.120;8.764;2022-10-16T14:13:24;22.20;67.70
75049;DHT22;63803;53.120;8.764;2022-10-16T14:15:52;22.20;67.60
75049;DHT22;63803;53.120;8.764;2022-10-16T14:18:25;22.20;67.40
75049;DHT22;63803;53.120;8.764;2022-10-16T14:20:52;22.20;67.50
75049;DHT22;63803;53.120;8.764;2022-10-16T14:23:30;22.10;67.30
75049;DHT22;63803;53.120;8.764;2022-10-16T14:26:27;22.10;67.40
75049;DHT22;63803;53.120;8.764;2022-10-16T14:29:13;22.20;67.50
75049;DHT22;63803;53.120;8.764;2022-10-16T14:31:39;22.20;67.40
75049;DHT22;63803;53.120;8.764;2022-10-16T14:34:31;22.10;67.20
75049;DHT22;63803;53.120;8.764;2022-10-16T14:37:00;22.10;67.30
75049;DHT22;63803;53.120;8.764;2022-10-16T14:39:28;21.80;67.70
75049;DHT22;63803;53.120;8.764;2022-10-16T14:41:56;20.90;67.10
75049;DHT22;63803;53.120;8.764;2022-10-16T14:44:28;22.10;67.20
75049;DHT22;63803;53.120;8.764;2022-10-16T14:46:55;20.80;66.70
75049;DHT22;63803;53.120;8.764;2022-10-16T14:49:21;22.10;67.20
75049;DHT22;63803;53.120;8.764;2022-10-16T14:51:48;22.10;67.70
75049;DHT22;63803;53.120;8.764;2022-10-16T14:54:16;22.10;67.20
75049;DHT22;63803;53.120;8.764;2022-10-16T14:56:51;21.80;67.40
75049;DHT22;63803;53.120;8.764;2022-10-16T14:59:25;22.20;67.10
75049;DHT22;63803;53.120;8.764;2022-10-16T15:01:52;21.70;67.10
75049;DHT22;63803;53.120;8.764;2022-10-16T15:04:17;22.10;66.70
75049;DHT22;63803;53.120;8.764;2022-10-16T15:06:44;22.20;66.60
75049;DHT22;63803;53.120;8.764;2022-10-16T15:09:10;21.30;66.40
75049;DHT22;63803;53.120;8.764;2022-10-16T15:11:36;22.10;65.80
75049;DHT22;63803;53.120;8.764;2022-10-16T15:14:02;23.60;67.90
75049;DHT22;63803;53.120;8.764;2022-10-16T15:16:29;22.10;66.40
75049;DHT22;63803;53.120;8.764;2022-10-16T15:18:55;22.10;66.30
75049;DHT22;63803;53.120;8.764;2022-10-16T15:21:26;22.10;66.30
75049;DHT22;63803;53.120;8.764;2022-10-16T15:23:52;22.20;66.40
75049;DHT22;63803;53.120;8.764;2022-10-16T15:26:18;22.10;66.40
75049;DHT22;63803;53.120;8.764;2022-10-16T15:28:44;22.80;67.30
75049;DHT22;63803;53.120;8.764;2022-10-16T15:31:10;22.20;66.30
75049;DHT22;63803;53.120;8.764;2022-10-16T15:33:36;22.20;66.30
75049;DHT22;63803;53.120;8.764;2022-10-16T15:36:03;22.20;66.30
75049;DHT22;63803;53.120;8.764;2022-10-16T15:38:29;22.20;66.30
75049;DHT22;63803;53.120;8.764;2022-10-16T15:40:55;22.20;66.30
75049;DHT22;63803;53.120;8.764;2022-10-16T15:43:22;22.20;66.40
75049;DHT22;63803;53.120;8.764;2022-10-16T15:46:04;22.20;66.40
75049;DHT22;63803;53.120;8.764;2022-10-16T15:48:32;22.20;66.40
75049;DHT22;63803;53.120;8.764;2022-10-16T15:50:59;22.10;66.40
75049;DHT22;63803;53.120;8.764;2022-10-16T15:53:24;22.20;66.30
75049;DHT22;63803;53.120;8.764;2022-10-16T15:55:50;22.20;66.50
75049;DHT22;63803;53.120;8.764;2022-10-16T15:58:17;22.20;66.80
75049;DHT22;63803;53.120;8.764;2022-10-16T16:00:42;23.60;67.90
75049;DHT22;63803;53.120;8.764;2022-10-16T16:03:08;22.20;66.60
75049;DHT22;63803;53.120;8.764;2022-10-16T16:05:38;21.00;66.60
75049;DHT22;63803;53.120;8.764;2022-10-16T16:08:04;22.50;67.40
75049;DHT22;63803;53.120;8.764;2022-10-16T16:10:30;22.20;66.80
75049;DHT22;63803;53.120;8.764;2022-10-16T16:12:56;22.20;66.80
75049;DHT22;63803;53.120;8.764;2022-10-16T16:15:23;22.20;66.70
75049;DHT22;63803;53.120;8.764;2022-10-16T16:17:49;22.20;66.70
75049;DHT22;63803;53.120;8.764;2022-10-16T16:20:15;22.20;66.70
75049;DHT22;63803;53.120;8.764;2022-10-16T16:22:41;22.20;66.60
75049;DHT22;63803;53.120;8.764;2022-10-16T16:25:07;22.20;66.50
75049;DHT22;63803;53.120;8.764;2022-10-16T16:27:33;22.20;66.60
75049;DHT22;63803;53.120;8.764;2022-10-16T16:30:00;22.20;66.30
75049;DHT22;63803;53.120;8.764;2022-10-16T16:32:27;22.30;66.30
75049;DHT22;63803;53.120;8.764;2022-10-16T16:34:52;22.40;66.80
75049;DHT22;63803;53.120;8.764;2022-10-16T16:37:18;22.20;66.30
75049;DHT22;63803;53.120;8.764;2022-10-16T16:39:44;22.20;65.70
75049;DHT22;63803;53.120;8.764;2022-10-16T16:42:10;22.20;65.90
75049;DHT22;63803;53.120;8.764;2022-10-16T16:44:36;22.20;66.10
75049;DHT22;63803;53.120;8.764;2022-10-16T16:47:03;22.20;65.80
75049;DHT22;63803;53.120;8.764;2022-10-16T16:49:29;22.30;65.90
75049;DHT22;63803;53.120;8.764;2022-10-16T16:51:55;22.20;65.90
75049;DHT22;63803;53.120;8.764;2022-10-16T16:54:21;22.30;65.90
75049;DHT22;63803;53.120;8.764;2022-10-16T16:56:47;22.30;65.80
75049;DHT22;63803;53.120;8.764;2022-10-16T16:59:14;22.30;66.10
75049;DHT22;63803;53.120;8.764;2022-10-16T17:01:41;22.20;66.00
75049;DHT22;63803;53.120;8.764;2022-10-16T17:04:07;22.20;66.10
75049;DHT22;63803;53.120;8.764;2022-10-16T17:06:33;24.30;67.70
75049;DHT22;63803;53.120;8.764;2022-10-16T17:09:01;22.20;66.00
75049;DHT22;63803;53.120;8.764;2022-10-16T17:11:28;22.20;66.20
75049;DHT22;63803;53.120;8.764;2022-10-16T17:13:56;22.20;66.20
75049;DHT22;63803;53.120;8.764;2022-10-16T17:16:29;22.20;66.10
75049;DHT22;63803;53.120;8.764;2022-10-16T17:18:58;22.20;66.20
75049;DHT22;63803;53.120;8.764;2022-10-16T17:21:24;22.20;66.00
75049;DHT22;63803;53.120;8.764;2022-10-16T17:23:51;22.20;66.10
75049;DHT22;63803;53.120;8.764;2022-10-16T17:26:18;22.20;66.00
75049;DHT22;63803;53.120;8.764;2022-10-16T17:28:44;22.30;65.90
75049;DHT22;63803;53.120;8.764;2022-10-16T17:31:15;22.30;65.90